createdAt,value
2019-05-19T00:02:12.996Z,84.80
2019-05-19T00:04:40.796Z,85.70
2019-05-19T00:07:08.460Z,86.00
2019-05-19T00:09:35.700Z,85.40
2019-05-19T00:12:02.940Z,85.50
2019-05-19T00:14:30.694Z,85.40
2019-05-19T00:16:57.955Z,86.10
2019-05-19T00:19:27.017Z,85.80
2019-05-19T00:21:54.887Z,84.90
2019-05-19T00:24:41.993Z,85.10
2019-05-19T00:27:09.320Z,85.20
2019-05-19T00:29:36.590Z,85.90
2019-05-19T00:32:03.943Z,86.40
2019-05-19T00:34:31.758Z,85.90
2019-05-19T00:36:58.744Z,85.60
2019-05-19T00:39:26.125Z,86.10
2019-05-19T00:41:53.450Z,85.80
2019-05-19T00:44:21.368Z,85.70
2019-05-19T00:46:48.947Z,85.40
2019-05-19T00:49:16.012Z,86.20
2019-05-19T00:51:43.330Z,87.00
2019-05-19T00:54:10.943Z,87.50
2019-05-19T00:56:57.623Z,86.30
2019-05-19T00:59:25.041Z,85.70
2019-05-19T01:01:52.642Z,86.80
2019-05-19T01:04:19.821Z,87.10
2019-05-19T01:06:47.126Z,86.20
2019-05-19T01:09:14.775Z,87.00
2019-05-19T01:11:42.069Z,87.00
2019-05-19T01:14:09.177Z,87.20
2019-05-19T01:16:55.913Z,87.20
2019-05-19T01:19:23.193Z,87.20
2019-05-19T01:21:50.589Z,87.80
2019-05-19T01:24:18.174Z,87.10
2019-05-19T01:26:45.919Z,87.50
2019-05-19T01:29:13.266Z,87.20
2019-05-19T01:31:40.512Z,88.30
2019-05-19T01:34:08.244Z,88.20
2019-05-19T01:36:35.620Z,89.70
2019-05-19T01:39:03.827Z,88.50
2019-05-19T01:41:31.151Z,88.00
2019-05-19T01:43:58.753Z,88.70
2019-05-19T01:46:26.011Z,89.20
2019-05-19T01:48:53.155Z,88.30
2019-05-19T01:51:20.415Z,88.40
2019-05-19T01:53:47.976Z,88.50
2019-05-19T01:56:15.501Z,88.20
2019-05-19T01:58:42.781Z,89.70
2019-05-19T02:01:10.108Z,88.60
2019-05-19T02:03:37.826Z,90.00
2019-05-19T02:06:05.301Z,88.50
2019-05-19T02:08:32.446Z,88.50
2019-05-19T02:10:59.698Z,88.50
2019-05-19T02:13:27.233Z,88.80
2019-05-19T02:15:54.467Z,88.70
2019-05-19T02:18:21.928Z,88.00
2019-05-19T02:20:49.101Z,88.50
2019-05-19T02:23:16.849Z,88.10
2019-05-19T02:25:44.112Z,88.90
2019-05-19T02:28:11.481Z,88.70
2019-05-19T02:30:38.599Z,88.00
2019-05-19T02:33:06.290Z,88.20
2019-05-19T02:35:33.487Z,88.20
2019-05-19T02:38:00.737Z,87.90
2019-05-19T02:40:27.893Z,88.70
2019-05-19T02:42:55.481Z,88.30
2019-05-19T02:45:22.737Z,88.40
2019-05-19T02:47:49.897Z,89.80
2019-05-19T02:50:17.065Z,89.70
2019-05-19T02:52:44.836Z,88.50
2019-05-19T02:55:12.175Z,90.00
2019-05-19T02:57:40.073Z,89.50
2019-05-19T03:00:08.349Z,88.50
2019-05-19T03:02:35.710Z,88.90
2019-05-19T03:05:03.118Z,88.50
2019-05-19T03:07:49.961Z,89.30
2019-05-19T03:10:17.393Z,88.80
2019-05-19T03:12:44.417Z,88.80
2019-05-19T03:15:12.348Z,88.00
2019-05-19T03:17:39.742Z,88.50
2019-05-19T03:20:07.072Z,88.00
2019-05-19T03:22:34.444Z,88.50
2019-05-19T03:25:02.115Z,89.00
2019-05-19T03:27:29.377Z,88.80
2019-05-19T03:29:58.516Z,88.60
2019-05-19T03:32:49.651Z,89.50
2019-05-19T03:35:16.882Z,90.10
2019-05-19T03:37:44.593Z,90.20
2019-05-19T03:40:31.444Z,90.00
2019-05-19T03:42:59.283Z,90.70
2019-05-19T03:45:26.366Z,90.10
2019-05-19T03:47:53.699Z,90.20
2019-05-19T03:50:20.696Z,90.70
2019-05-19T03:53:07.356Z,89.50
2019-05-19T03:55:34.577Z,89.50
2019-05-19T03:58:02.336Z,89.50
2019-05-19T04:00:49.567Z,90.00
2019-05-19T04:03:17.270Z,89.80
2019-05-19T04:05:44.448Z,89.10
2019-05-19T04:08:31.081Z,89.30
2019-05-19T04:13:43.893Z,90.60
2019-05-19T04:16:11.094Z,89.70
2019-05-19T04:18:38.463Z,89.90
2019-05-19T04:21:05.664Z,90.40
2019-05-19T04:23:33.216Z,90.50
2019-05-19T04:26:00.783Z,90.60
2019-05-19T04:28:47.785Z,90.20
2019-05-19T04:31:14.963Z,90.20
2019-05-19T04:33:42.103Z,90.20
2019-05-19T04:36:09.532Z,89.90
2019-05-19T04:38:37.113Z,91.10
2019-05-19T04:41:04.605Z,90.00
2019-05-19T04:43:31.689Z,90.00
2019-05-19T04:45:58.841Z,90.00
2019-05-19T04:48:26.195Z,90.70
2019-05-19T04:50:54.478Z,90.40
2019-05-19T04:53:21.650Z,90.70
2019-05-19T04:55:50.465Z,90.20
2019-05-19T04:58:18.101Z,90.20
2019-05-19T05:01:04.752Z,90.70
2019-05-19T05:03:32.302Z,90.20
2019-05-19T05:05:59.589Z,91.00
2019-05-19T05:08:30.313Z,90.90
2019-05-19T05:10:56.120Z,90.90
2019-05-19T05:13:23.756Z,90.70
2019-05-19T05:16:10.892Z,90.60
2019-05-19T05:18:38.057Z,90.50
2019-05-19T05:21:05.130Z,91.10
2019-05-19T05:23:32.238Z,90.50
2019-05-19T05:25:59.427Z,90.20
2019-05-19T05:28:27.380Z,90.30
2019-05-19T05:30:54.907Z,90.70
2019-05-19T05:33:22.802Z,90.70
2019-05-19T05:35:50.517Z,90.90
2019-05-19T05:38:19.665Z,90.40
2019-05-19T05:40:46.789Z,91.10
2019-05-19T05:43:14.475Z,90.40
2019-05-19T05:45:42.089Z,91.30
2019-05-19T05:48:09.338Z,90.60
2019-05-19T05:50:41.198Z,91.10
2019-05-19T05:53:10.421Z,91.20
2019-05-19T05:55:42.099Z,91.00
2019-05-19T05:58:29.454Z,90.80
2019-05-19T06:01:08.108Z,91.30
2019-05-19T06:03:35.228Z,91.20
2019-05-19T06:06:12.385Z,91.60
2019-05-19T06:08:39.885Z,90.90
2019-05-19T06:11:11.174Z,91.50
2019-05-19T06:13:38.181Z,91.10
2019-05-19T06:16:07.607Z,91.50
2019-05-19T06:18:35.681Z,92.30
2019-05-19T06:21:02.865Z,91.40
2019-05-19T06:23:30.202Z,91.40
2019-05-19T06:25:57.353Z,91.30
2019-05-19T06:28:25.090Z,91.60
2019-05-19T06:30:52.794Z,91.60
2019-05-19T06:33:20.185Z,91.60
2019-05-19T06:35:47.820Z,91.20
2019-05-19T06:38:15.426Z,91.50
2019-05-19T06:40:42.834Z,91.60
2019-05-19T06:43:10.013Z,91.30
2019-05-19T06:45:56.918Z,91.30
2019-05-19T06:48:24.107Z,92.00
2019-05-19T06:50:51.439Z,91.40
2019-05-19T06:53:19.245Z,91.60
2019-05-19T06:55:46.312Z,91.90
2019-05-19T06:58:13.695Z,91.50
2019-05-19T07:01:00.416Z,91.80
2019-05-19T07:03:27.503Z,91.40
2019-05-19T07:05:54.858Z,91.80
2019-05-19T07:08:22.533Z,91.50
2019-05-19T07:11:10.431Z,91.30
2019-05-19T07:13:37.652Z,91.60
2019-05-19T07:16:24.711Z,91.60
2019-05-19T07:18:51.855Z,91.20
2019-05-19T07:21:38.691Z,91.00
2019-05-19T07:24:05.955Z,91.20
2019-05-19T07:26:33.296Z,91.50
2019-05-19T07:29:00.543Z,90.90
2019-05-19T07:31:28.313Z,91.40
2019-05-19T07:33:56.041Z,91.60
2019-05-19T07:36:23.443Z,91.90
2019-05-19T07:38:50.876Z,91.20
2019-05-19T07:41:18.614Z,92.10
2019-05-19T07:43:45.811Z,91.90
2019-05-19T07:46:13.192Z,91.50
2019-05-19T07:48:40.227Z,92.00
2019-05-19T07:51:07.830Z,91.50
2019-05-19T07:53:42.631Z,91.80
2019-05-19T07:56:04.555Z,91.90
2019-05-19T07:58:32.280Z,91.60
2019-05-19T08:00:59.693Z,91.70
2019-05-19T08:03:26.828Z,91.60
2019-05-19T08:05:56.999Z,91.30
2019-05-19T08:08:43.125Z,91.80
2019-05-19T08:11:10.408Z,91.60
2019-05-19T08:13:37.758Z,91.80
2019-05-19T08:16:24.323Z,91.80
2019-05-19T08:18:52.646Z,92.10
2019-05-19T08:21:20.081Z,92.50
2019-05-19T08:23:59.780Z,91.80
2019-05-19T08:26:17.125Z,91.90
2019-05-19T08:28:44.483Z,91.90
2019-05-19T08:31:19.452Z,91.50
2019-05-19T08:33:46.738Z,92.00
2019-05-19T08:36:13.923Z,91.70
2019-05-19T08:38:41.304Z,92.00
2019-05-19T08:41:09.043Z,92.00
2019-05-19T08:43:36.434Z,92.40
2019-05-19T08:46:04.003Z,92.20
2019-05-19T08:48:50.654Z,91.80
2019-05-19T08:51:17.945Z,92.00
2019-05-19T08:53:45.625Z,92.10
2019-05-19T08:56:13.056Z,92.20
2019-05-19T08:58:40.326Z,92.20
2019-05-19T09:01:07.428Z,92.00
2019-05-19T09:03:35.025Z,91.90
2019-05-19T09:06:02.907Z,91.50
2019-05-19T09:08:30.178Z,91.80
2019-05-19T09:10:57.293Z,91.90
2019-05-19T09:13:44.029Z,91.70
2019-05-19T09:16:11.293Z,91.80
2019-05-19T09:18:38.385Z,91.60
2019-05-19T09:21:25.495Z,91.60
2019-05-19T09:24:29.281Z,91.80
2019-05-19T09:26:43.908Z,92.30
2019-05-19T09:29:11.067Z,91.70
2019-05-19T09:31:41.235Z,91.80
2019-05-19T09:34:07.946Z,92.10
2019-05-19T09:36:35.441Z,92.00
2019-05-19T09:39:05.090Z,91.50
2019-05-19T09:41:32.283Z,91.50
2019-05-19T09:43:59.505Z,92.10
2019-05-19T09:46:46.296Z,92.00
2019-05-19T09:49:26.670Z,91.60
2019-05-19T09:54:45.248Z,91.60
2019-05-19T09:57:08.458Z,91.90
2019-05-19T09:59:36.206Z,92.10
2019-05-19T10:02:03.753Z,92.10
2019-05-19T10:04:30.898Z,92.50
2019-05-19T10:06:58.087Z,91.70
2019-05-19T10:09:48.213Z,92.00
2019-05-19T10:12:35.371Z,92.00
2019-05-19T10:15:03.267Z,91.90
2019-05-19T10:17:30.650Z,92.70
2019-05-19T10:19:57.653Z,92.30
2019-05-19T10:22:25.262Z,92.10
2019-05-19T10:25:10.351Z,92.20
2019-05-19T10:27:22.227Z,93.00
2019-05-19T10:30:09.342Z,91.70
2019-05-19T10:32:37.274Z,91.40
2019-05-19T10:35:04.739Z,91.90
2019-05-19T10:37:31.698Z,91.90
2019-05-19T10:39:59.231Z,91.50
2019-05-19T10:42:26.389Z,91.80
2019-05-19T10:44:54.077Z,91.80
2019-05-19T10:47:42.857Z,91.90
2019-05-19T10:50:12.752Z,92.00
2019-05-19T10:52:39.812Z,91.70
2019-05-19T10:55:07.344Z,91.80
2019-05-19T10:57:54.739Z,92.00
2019-05-19T11:00:22.379Z,91.90
2019-05-19T11:02:51.439Z,91.70
2019-05-19T11:05:38.331Z,91.50
2019-05-19T11:08:06.034Z,91.60
2019-05-19T11:10:53.738Z,91.90
2019-05-19T11:13:25.660Z,91.80
2019-05-19T11:15:50.345Z,91.70
2019-05-19T11:18:18.160Z,91.10
2019-05-19T11:20:45.418Z,91.50
2019-05-19T11:23:12.904Z,91.60
2019-05-19T11:25:50.968Z,91.60
2019-05-19T11:28:09.438Z,91.70
2019-05-19T11:30:36.806Z,91.90
2019-05-19T11:33:04.269Z,91.40
2019-05-19T11:35:32.249Z,91.50
2019-05-19T11:37:59.617Z,91.70
2019-05-19T11:40:46.228Z,92.00
2019-05-19T11:43:13.236Z,91.50
2019-05-19T11:45:40.322Z,91.50
2019-05-19T11:48:07.972Z,91.30
2019-05-19T11:50:35.688Z,91.30
2019-05-19T11:53:04.485Z,91.50
2019-05-19T11:55:32.074Z,91.40
2019-05-19T11:58:19.450Z,91.50
2019-05-19T12:00:46.525Z,91.40
2019-05-19T12:03:15.972Z,91.30
2019-05-19T12:05:43.595Z,91.30
2019-05-19T12:08:10.760Z,91.70
2019-05-19T12:10:37.924Z,91.30
2019-05-19T12:13:24.546Z,91.50
2019-05-19T12:15:53.184Z,91.60
2019-05-19T12:18:20.722Z,91.40
2019-05-19T12:20:47.870Z,91.40
2019-05-19T12:23:17.446Z,91.60
2019-05-19T12:25:44.774Z,91.20
2019-05-19T12:28:11.864Z,91.20
2019-05-19T12:30:39.687Z,91.40
2019-05-19T12:33:06.844Z,91.60
2019-05-19T12:35:37.395Z,91.80
2019-05-19T12:38:04.673Z,91.70
2019-05-19T12:40:51.291Z,91.40
2019-05-19T12:43:18.675Z,91.40
2019-05-19T12:45:46.074Z,91.30
2019-05-19T12:48:13.404Z,91.40
2019-05-19T12:50:40.787Z,91.30
2019-05-19T12:53:07.823Z,91.70
2019-05-19T12:55:35.634Z,91.40
2019-05-19T12:58:03.226Z,91.30
2019-05-19T13:00:50.140Z,91.70
2019-05-19T13:03:17.310Z,91.50
2019-05-19T13:05:44.472Z,91.80
2019-05-19T13:08:12.235Z,92.00
2019-05-19T13:10:59.461Z,91.90
2019-05-19T13:13:27.468Z,91.60
2019-05-19T13:15:54.622Z,92.00
2019-05-19T13:18:21.664Z,92.30
2019-05-19T13:20:49.214Z,92.50
2019-05-19T13:23:16.498Z,91.80
2019-05-19T13:25:43.622Z,92.10
2019-05-19T13:28:10.881Z,91.90
2019-05-19T13:30:38.558Z,92.00
2019-05-19T13:33:05.865Z,91.80
2019-05-19T13:35:32.985Z,92.70
2019-05-19T13:38:19.810Z,92.30
2019-05-19T13:40:47.575Z,92.10
2019-05-19T13:43:15.424Z,92.20
2019-05-19T13:45:42.578Z,92.40
2019-05-19T13:48:29.195Z,92.30
2019-05-19T13:50:56.122Z,92.10
2019-05-19T13:53:42.647Z,92.20
2019-05-19T13:56:09.720Z,92.50
2019-05-19T13:58:36.640Z,92.30
2019-05-19T14:01:03.968Z,92.50
2019-05-19T14:03:31.095Z,92.20
2019-05-19T14:05:59.437Z,92.60
2019-05-19T14:08:27.046Z,92.40
2019-05-19T14:10:54.343Z,92.40
2019-05-19T14:13:21.702Z,92.30
2019-05-19T14:15:49.306Z,92.20
2019-05-19T14:18:17.128Z,93.10
2019-05-19T14:20:44.508Z,92.70
2019-05-19T14:23:11.826Z,92.90
2019-05-19T14:25:39.119Z,93.00
2019-05-19T14:28:06.774Z,93.00
2019-05-19T14:30:34.130Z,93.00
2019-05-19T14:33:01.358Z,92.90
2019-05-19T14:35:28.713Z,93.10
2019-05-19T14:37:56.414Z,93.50
2019-05-19T14:40:23.758Z,93.00
2019-05-19T14:42:55.277Z,93.10
2019-05-19T14:45:22.348Z,93.40
2019-05-19T14:47:49.889Z,93.10
2019-05-19T14:50:36.515Z,93.50
2019-05-19T14:53:04.283Z,93.50
2019-05-19T14:55:31.366Z,93.60
2019-05-19T14:57:58.676Z,94.00
2019-05-19T15:00:26.031Z,93.40
2019-05-19T15:02:53.590Z,93.40
2019-05-19T15:05:20.650Z,93.60
2019-05-19T15:07:47.702Z,93.50
2019-05-19T15:10:14.884Z,93.30
2019-05-19T15:12:42.433Z,93.80
2019-05-19T15:15:10.174Z,93.70
2019-05-19T15:17:37.339Z,93.90
2019-05-19T15:20:24.419Z,94.00
2019-05-19T15:22:51.792Z,94.10
2019-05-19T15:25:18.826Z,94.40
2019-05-19T15:27:59.224Z,93.80
2019-05-19T15:30:15.869Z,93.80
2019-05-19T15:32:43.008Z,94.30
2019-05-19T15:35:10.923Z,94.20
2019-05-19T15:37:38.373Z,93.90
2019-05-19T15:40:05.759Z,94.70
2019-05-19T15:42:33.134Z,94.20
2019-05-19T15:45:00.595Z,94.70
2019-05-19T15:47:28.094Z,94.40
2019-05-19T15:49:55.297Z,94.80
2019-05-19T15:52:22.582Z,94.30
2019-05-19T15:54:50.200Z,95.00
2019-05-19T15:57:17.907Z,94.70
2019-05-19T15:59:45.243Z,94.90
2019-05-19T16:02:12.172Z,94.60
2019-05-19T16:04:39.401Z,94.90
2019-05-19T16:07:06.928Z,94.10
2019-05-19T16:09:34.314Z,95.20
2019-05-19T16:12:01.647Z,95.00
2019-05-19T16:14:29.090Z,94.90
2019-05-19T16:17:15.828Z,95.10
2019-05-19T16:19:43.612Z,94.60
2019-05-19T16:22:30.365Z,94.60
2019-05-19T16:24:57.785Z,94.80
2019-05-19T16:27:27.523Z,95.10
2019-05-19T16:30:14.183Z,94.70
2019-05-19T16:32:41.932Z,95.50
2019-05-19T16:35:09.686Z,94.60
2019-05-19T16:37:37.028Z,95.00
2019-05-19T16:40:04.441Z,95.20
2019-05-19T16:42:51.378Z,95.50
2019-05-19T16:45:18.679Z,95.30
2019-05-19T16:47:46.579Z,94.70
2019-05-19T16:50:14.401Z,95.20
2019-05-19T16:52:41.920Z,95.40
2019-05-19T16:55:29.831Z,95.50
2019-05-19T16:57:57.218Z,94.90
2019-05-19T17:00:44.125Z,95.20
2019-05-19T17:05:59.816Z,95.70
2019-05-19T17:08:27.356Z,95.80
2019-05-19T17:11:18.282Z,95.40
2019-05-19T17:13:43.145Z,95.30
2019-05-19T17:16:10.712Z,95.50
2019-05-19T17:18:37.948Z,95.90
2019-05-19T17:21:04.993Z,95.80
2019-05-19T17:23:32.744Z,95.60
2019-05-19T17:25:59.989Z,95.50
2019-05-19T17:28:27.034Z,96.60
2019-05-19T17:31:13.789Z,96.10
2019-05-19T17:33:41.190Z,95.60
2019-05-19T17:36:08.305Z,96.60
2019-05-19T17:38:36.152Z,95.90
2019-05-19T17:41:03.744Z,95.80
2019-05-19T17:43:31.166Z,96.70
2019-05-19T17:45:58.628Z,96.30
2019-05-19T17:48:26.906Z,96.30
2019-05-19T17:50:54.609Z,95.80
2019-05-19T17:53:21.979Z,96.10
2019-05-19T17:55:49.689Z,96.00
2019-05-19T17:58:36.397Z,95.80
2019-05-19T18:01:03.722Z,96.30
2019-05-19T18:03:31.451Z,96.30
2019-05-19T18:06:18.532Z,96.00
2019-05-19T18:08:46.310Z,96.20
2019-05-19T18:11:13.717Z,96.20
2019-05-19T18:13:41.428Z,96.60
2019-05-19T18:16:08.703Z,96.20
2019-05-19T18:18:36.083Z,96.60
2019-05-19T18:21:03.655Z,96.40
2019-05-19T18:23:31.648Z,96.90
2019-05-19T18:25:58.847Z,97.30
2019-05-19T18:28:26.250Z,97.40
2019-05-19T18:30:53.774Z,97.80
2019-05-19T18:33:21.730Z,97.20
2019-05-19T18:35:48.900Z,97.50
2019-05-19T18:38:16.256Z,97.60
2019-05-19T18:40:43.512Z,97.70
2019-05-19T18:43:11.215Z,97.10
2019-05-19T18:45:38.728Z,97.00
2019-05-19T18:48:06.090Z,96.90
2019-05-19T18:50:33.238Z,96.60
2019-05-19T18:53:00.507Z,96.60
2019-05-19T18:55:28.534Z,96.90
2019-05-19T18:57:56.138Z,97.20
2019-05-19T19:00:42.687Z,97.40
2019-05-19T19:03:09.871Z,96.60
2019-05-19T19:05:56.672Z,97.40
2019-05-19T19:08:23.935Z,97.40
2019-05-19T19:10:51.418Z,97.40
2019-05-19T19:13:18.793Z,97.50
2019-05-19T19:15:46.605Z,97.90
2019-05-19T19:18:14.008Z,97.30
2019-05-19T19:20:41.233Z,98.20
2019-05-19T19:23:08.520Z,97.90
2019-05-19T19:25:36.333Z,98.30
2019-05-19T19:28:04.072Z,98.10
2019-05-19T19:30:31.821Z,97.90
2019-05-19T19:32:59.223Z,98.20
2019-05-19T19:35:26.423Z,97.40
2019-05-19T19:37:54.171Z,97.70
2019-05-19T19:40:27.639Z,97.50
2019-05-19T19:42:54.982Z,97.30
2019-05-19T19:45:22.403Z,98.00
2019-05-19T19:47:51.191Z,98.00
2019-05-19T19:50:18.468Z,97.50
2019-05-19T19:52:45.630Z,97.80
2019-05-19T19:55:13.356Z,98.40
2019-05-19T19:57:41.082Z,97.80
2019-05-19T20:00:17.692Z,97.10
2019-05-19T20:02:38.053Z,97.80
2019-05-19T20:05:05.568Z,97.50
2019-05-19T20:07:32.935Z,97.10
2019-05-19T20:10:00.318Z,97.20
2019-05-19T20:12:28.023Z,97.30
2019-05-19T20:14:55.632Z,97.40
2019-05-19T20:17:23.057Z,97.00
2019-05-19T20:19:50.341Z,96.90
2019-05-19T20:22:17.693Z,98.10
2019-05-19T20:24:45.704Z,97.20
2019-05-19T20:27:13.890Z,97.50
2019-05-19T20:29:41.152Z,97.30
2019-05-19T20:32:08.546Z,97.20
2019-05-19T20:34:36.044Z,97.00
2019-05-19T20:37:03.771Z,97.90
2019-05-19T20:39:31.188Z,97.10
2019-05-19T20:41:58.305Z,97.60
2019-05-19T20:44:25.829Z,98.30
2019-05-19T20:46:53.493Z,97.80
2019-05-19T20:49:20.621Z,98.10
2019-05-19T20:51:47.901Z,98.40
2019-05-19T20:54:15.315Z,98.10
2019-05-19T20:56:42.817Z,97.90
2019-05-19T20:59:10.140Z,98.20
2019-05-19T21:01:37.373Z,97.90
2019-05-19T21:04:04.729Z,97.20
2019-05-19T21:06:32.383Z,97.90
2019-05-19T21:08:59.560Z,97.60
2019-05-19T21:11:26.742Z,97.60
2019-05-19T21:13:54.097Z,98.00
2019-05-19T21:16:21.562Z,97.60
2019-05-19T21:18:49.330Z,97.30
2019-05-19T21:21:16.378Z,97.40
2019-05-19T21:23:43.414Z,97.30
2019-05-19T21:26:11.158Z,97.20
2019-05-19T21:28:38.709Z,97.50
2019-05-19T21:31:06.491Z,97.50
2019-05-19T21:33:33.918Z,97.10
2019-05-19T21:36:01.521Z,97.20
2019-05-19T21:38:28.641Z,97.50
2019-05-19T21:40:55.823Z,97.20
2019-05-19T21:43:23.132Z,97.30
2019-05-19T21:46:09.780Z,97.00
2019-05-19T21:48:37.049Z,96.70
2019-05-19T21:51:04.694Z,97.10
2019-05-19T21:53:32.425Z,97.30
2019-05-19T21:55:59.477Z,97.50
2019-05-19T21:58:26.716Z,97.20
2019-05-19T22:00:56.117Z,97.00
2019-05-19T22:03:23.332Z,97.60
2019-05-19T22:05:53.376Z,97.40
2019-05-19T22:08:19.384Z,97.20
2019-05-19T22:10:46.769Z,97.00
2019-05-19T22:13:14.084Z,97.40
2019-05-19T22:15:41.986Z,96.90
2019-05-19T22:18:29.171Z,97.30
2019-05-19T22:20:56.749Z,97.90
2019-05-19T22:23:43.944Z,97.40
2019-05-19T22:26:11.179Z,97.70
2019-05-19T22:28:38.185Z,97.20
2019-05-19T22:31:36.201Z,97.20
2019-05-19T22:33:53.814Z,97.30
2019-05-19T22:36:21.604Z,97.20
2019-05-19T22:38:48.851Z,98.40
2019-05-19T22:41:16.128Z,97.80
2019-05-19T22:43:43.283Z,97.90
2019-05-19T22:46:10.970Z,97.90
2019-05-19T22:48:57.606Z,97.30
2019-05-19T22:51:37.928Z,97.60
2019-05-19T22:54:04.934Z,97.20
2019-05-19T22:56:32.181Z,97.20
2019-05-19T22:58:59.812Z,97.50
2019-05-19T23:01:27.148Z,97.70
2019-05-19T23:03:54.330Z,97.30
2019-05-19T23:06:40.933Z,97.60
2019-05-19T23:09:08.954Z,97.50
2019-05-19T23:11:36.198Z,98.50
2019-05-19T23:14:03.657Z,97.60
2019-05-19T23:16:31.078Z,97.40
2019-05-19T23:18:58.231Z,97.30
2019-05-19T23:21:25.580Z,97.30
2019-05-19T23:23:53.282Z,97.30
2019-05-19T23:26:20.619Z,97.20
2019-05-19T23:28:48.023Z,97.70
2019-05-19T23:31:15.428Z,97.40
2019-05-19T23:33:43.218Z,97.30
2019-05-19T23:36:10.438Z,97.40
2019-05-19T23:38:37.700Z,97.70
2019-05-19T23:41:04.729Z,97.50
2019-05-19T23:43:31.785Z,97.20
2019-05-19T23:45:59.121Z,97.40
2019-05-19T23:48:26.331Z,97.00
2019-05-19T23:50:53.496Z,97.00
2019-05-19T23:53:20.830Z,96.90
2019-05-19T23:55:47.955Z,97.60
2019-05-19T23:58:15.704Z,97.70
